sensor_id;sensor_type;location;lat;lon;timestamp;P1;durP1;ratioP1;P2;durP2;ratioP2
11539;SDS011;5826;54.756;9.192;2023-04-15T00:01:25;8.35;;;6.70;;
11539;SDS011;5826;54.756;9.192;2023-04-15T00:03:52;7.97;;;6.75;;
11539;SDS011;5826;54.756;9.192;2023-04-15T00:06:19;7.18;;;6.47;;
11539;SDS011;5826;54.756;9.192;2023-04-15T00:08:45;6.85;;;6.15;;
11539;SDS011;5826;54.756;9.192;2023-04-15T00:11:11;8.30;;;6.93;;
11539;SDS011;5826;54.756;9.192;2023-04-15T00:13:38;6.88;;;6.18;;
11539;SDS011;5826;54.756;9.192;2023-04-15T00:16:04;7.28;;;6.13;;
11539;SDS011;5826;54.756;9.192;2023-04-15T00:18:32;6.15;;;5.38;;
11539;SDS011;5826;54.756;9.192;2023-04-15T00:20:58;6.40;;;5.75;;
11539;SDS011;5826;54.756;9.192;2023-04-15T00:23:23;9.10;;;7.18;;
11539;SDS011;5826;54.756;9.192;2023-04-15T00:25:49;6.03;;;5.40;;
11539;SDS011;5826;54.756;9.192;2023-04-15T00:28:15;6.82;;;6.13;;
11539;SDS011;5826;54.756;9.192;2023-04-15T00:30:41;5.72;;;5.13;;
11539;SDS011;5826;54.756;9.192;2023-04-15T00:33:07;6.47;;;5.30;;
11539;SDS011;5826;54.756;9.192;2023-04-15T00:35:33;6.28;;;5.55;;
11539;SDS011;5826;54.756;9.192;2023-04-15T00:37:59;5.72;;;5.13;;
11539;SDS011;5826;54.756;9.192;2023-04-15T00:40:25;7.57;;;5.75;;
11539;SDS011;5826;54.756;9.192;2023-04-15T00:42:51;6.85;;;5.35;;
11539;SDS011;5826;54.756;9.192;2023-04-15T00:45:17;5.38;;;4.80;;
11539;SDS011;5826;54.756;9.192;2023-04-15T00:47:43;5.95;;;5.10;;
11539;SDS011;5826;54.756;9.192;2023-04-15T00:50:09;6.38;;;5.30;;
11539;SDS011;5826;54.756;9.192;2023-04-15T00:52:36;5.60;;;4.78;;
11539;SDS011;5826;54.756;9.192;2023-04-15T00:55:03;5.47;;;4.85;;
11539;SDS011;5826;54.756;9.192;2023-04-15T00:57:29;6.22;;;5.63;;
11539;SDS011;5826;54.756;9.192;2023-04-15T00:59:55;5.50;;;5.00;;
11539;SDS011;5826;54.756;9.192;2023-04-15T01:02:22;5.95;;;5.18;;
11539;SDS011;5826;54.756;9.192;2023-04-15T01:04:48;6.18;;;4.93;;
11539;SDS011;5826;54.756;9.192;2023-04-15T01:07:14;5.50;;;4.85;;
11539;SDS011;5826;54.756;9.192;2023-04-15T01:09:40;6.07;;;4.90;;
11539;SDS011;5826;54.756;9.192;2023-04-15T01:12:06;5.70;;;4.70;;
11539;SDS011;5826;54.756;9.192;2023-04-15T01:14:34;5.10;;;4.60;;
11539;SDS011;5826;54.756;9.192;2023-04-15T01:17:00;6.03;;;5.43;;
11539;SDS011;5826;54.756;9.192;2023-04-15T01:19:26;5.53;;;4.70;;
11539;SDS011;5826;54.756;9.192;2023-04-15T01:21:52;5.05;;;4.55;;
11539;SDS011;5826;54.756;9.192;2023-04-15T01:24:18;7.30;;;6.55;;
11539;SDS011;5826;54.756;9.192;2023-04-15T01:26:44;6.30;;;5.70;;
11539;SDS011;5826;54.756;9.192;2023-04-15T01:29:10;5.05;;;4.50;;
11539;SDS011;5826;54.756;9.192;2023-04-15T01:31:36;5.38;;;4.80;;
11539;SDS011;5826;54.756;9.192;2023-04-15T01:34:01;6.50;;;5.50;;
11539;SDS011;5826;54.756;9.192;2023-04-15T01:36:27;6.13;;;5.28;;
11539;SDS011;5826;54.756;9.192;2023-04-15T01:38:54;5.40;;;4.80;;
11539;SDS011;5826;54.756;9.192;2023-04-15T01:41:21;5.05;;;4.55;;
11539;SDS011;5826;54.756;9.192;2023-04-15T01:43:53;6.63;;;4.95;;
11539;SDS011;5826;54.756;9.192;2023-04-15T01:46:19;5.65;;;4.90;;
11539;SDS011;5826;54.756;9.192;2023-04-15T01:48:45;5.30;;;4.80;;
11539;SDS011;5826;54.756;9.192;2023-04-15T01:51:10;6.40;;;4.68;;
11539;SDS011;5826;54.756;9.192;2023-04-15T01:53:36;5.95;;;5.30;;
11539;SDS011;5826;54.756;9.192;2023-04-15T01:56:02;5.20;;;4.60;;
11539;SDS011;5826;54.756;9.192;2023-04-15T01:58:28;5.05;;;4.47;;
11539;SDS011;5826;54.756;9.192;2023-04-15T02:00:54;6.03;;;5.18;;
11539;SDS011;5826;54.756;9.192;2023-04-15T02:03:19;7.80;;;6.20;;
11539;SDS011;5826;54.756;9.192;2023-04-15T02:05:45;5.70;;;5.10;;
11539;SDS011;5826;54.756;9.192;2023-04-15T02:08:11;5.40;;;4.90;;
11539;SDS011;5826;54.756;9.192;2023-04-15T02:10:37;7.38;;;6.57;;
11539;SDS011;5826;54.756;9.192;2023-04-15T02:13:02;6.15;;;5.47;;
11539;SDS011;5826;54.756;9.192;2023-04-15T02:15:28;5.40;;;4.90;;
11539;SDS011;5826;54.756;9.192;2023-04-15T02:17:54;5.57;;;5.03;;
11539;SDS011;5826;54.756;9.192;2023-04-15T02:20:20;5.97;;;5.03;;
11539;SDS011;5826;54.756;9.192;2023-04-15T02:22:45;6.78;;;6.10;;
11539;SDS011;5826;54.756;9.192;2023-04-15T02:25:12;5.38;;;4.88;;
11539;SDS011;5826;54.756;9.192;2023-04-15T02:27:38;5.07;;;4.53;;
11539;SDS011;5826;54.756;9.192;2023-04-15T02:30:03;5.22;;;4.72;;
11539;SDS011;5826;54.756;9.192;2023-04-15T02:32:29;6.80;;;5.75;;
11539;SDS011;5826;54.756;9.192;2023-04-15T02:34:55;5.67;;;5.10;;
11539;SDS011;5826;54.756;9.192;2023-04-15T02:37:21;7.07;;;6.38;;
11539;SDS011;5826;54.756;9.192;2023-04-15T02:39:47;6.03;;;5.43;;
11539;SDS011;5826;54.756;9.192;2023-04-15T02:42:12;5.97;;;5.38;;
11539;SDS011;5826;54.756;9.192;2023-04-15T02:44:38;6.53;;;5.82;;
11539;SDS011;5826;54.756;9.192;2023-04-15T02:47:03;6.32;;;5.10;;
11539;SDS011;5826;54.756;9.192;2023-04-15T02:49:31;5.13;;;4.63;;
11539;SDS011;5826;54.756;9.192;2023-04-15T02:51:56;7.85;;;6.43;;
11539;SDS011;5826;54.756;9.192;2023-04-15T02:54:24;8.20;;;6.00;;
11539;SDS011;5826;54.756;9.192;2023-04-15T02:56:52;6.80;;;5.70;;
11539;SDS011;5826;54.756;9.192;2023-04-15T02:59:20;6.78;;;6.07;;
11539;SDS011;5826;54.756;9.192;2023-04-15T03:01:46;5.78;;;5.18;;
11539;SDS011;5826;54.756;9.192;2023-04-15T03:04:11;6.73;;;6.03;;
11539;SDS011;5826;54.756;9.192;2023-04-15T03:06:38;5.25;;;4.68;;
11539;SDS011;5826;54.756;9.192;2023-04-15T03:09:03;5.90;;;5.10;;
11539;SDS011;5826;54.756;9.192;2023-04-15T03:11:29;5.97;;;5.23;;
11539;SDS011;5826;54.756;9.192;2023-04-15T03:13:55;5.65;;;4.88;;
11539;SDS011;5826;54.756;9.192;2023-04-15T03:16:21;5.73;;;5.13;;
11539;SDS011;5826;54.756;9.192;2023-04-15T03:18:46;5.97;;;4.78;;
11539;SDS011;5826;54.756;9.192;2023-04-15T03:21:12;5.50;;;4.70;;
11539;SDS011;5826;54.756;9.192;2023-04-15T03:23:37;4.95;;;4.45;;
11539;SDS011;5826;54.756;9.192;2023-04-15T03:26:03;5.30;;;4.80;;
11539;SDS011;5826;54.756;9.192;2023-04-15T03:28:29;6.00;;;5.40;;
11539;SDS011;5826;54.756;9.192;2023-04-15T03:30:55;6.10;;;4.70;;
11539;SDS011;5826;54.756;9.192;2023-04-15T03:33:20;5.70;;;5.10;;
11539;SDS011;5826;54.756;9.192;2023-04-15T03:35:46;6.18;;;5.20;;
11539;SDS011;5826;54.756;9.192;2023-04-15T03:38:12;5.60;;;4.93;;
11539;SDS011;5826;54.756;9.192;2023-04-15T03:40:40;4.90;;;4.37;;
11539;SDS011;5826;54.756;9.192;2023-04-15T03:43:06;5.13;;;4.30;;
11539;SDS011;5826;54.756;9.192;2023-04-15T03:45:31;4.78;;;4.25;;
11539;SDS011;5826;54.756;9.192;2023-04-15T03:47:57;4.53;;;3.83;;
11539;SDS011;5826;54.756;9.192;2023-04-15T03:50:23;5.27;;;4.57;;
11539;SDS011;5826;54.756;9.192;2023-04-15T03:52:48;4.90;;;4.27;;
11539;SDS011;5826;54.756;9.192;2023-04-15T03:55:14;5.20;;;4.27;;
11539;SDS011;5826;54.756;9.192;2023-04-15T03:57:39;5.03;;;4.40;;
11539;SDS011;5826;54.756;9.192;2023-04-15T04:00:05;4.45;;;3.67;;
11539;SDS011;5826;54.756;9.192;2023-04-15T04:02:33;4.53;;;4.13;;
11539;SDS011;5826;54.756;9.192;2023-04-15T04:04:58;4.20;;;3.80;;
11539;SDS011;5826;54.756;9.192;2023-04-15T04:07:24;4.73;;;4.30;;
11539;SDS011;5826;54.756;9.192;2023-04-15T04:09:50;3.78;;;3.35;;
11539;SDS011;5826;54.756;9.192;2023-04-15T04:12:15;4.03;;;3.63;;
11539;SDS011;5826;54.756;9.192;2023-04-15T04:14:41;4.93;;;4.43;;
11539;SDS011;5826;54.756;9.192;2023-04-15T04:17:06;4.63;;;4.23;;
11539;SDS011;5826;54.756;9.192;2023-04-15T04:19:32;3.97;;;3.57;;
11539;SDS011;5826;54.756;9.192;2023-04-15T04:21:58;4.22;;;3.80;;
11539;SDS011;5826;54.756;9.192;2023-04-15T04:24:23;4.17;;;3.37;;
11539;SDS011;5826;54.756;9.192;2023-04-15T04:26:49;4.07;;;3.67;;
11539;SDS011;5826;54.756;9.192;2023-04-15T04:29:15;4.22;;;3.83;;
11539;SDS011;5826;54.756;9.192;2023-04-15T04:31:40;3.33;;;3.03;;
11539;SDS011;5826;54.756;9.192;2023-04-15T04:34:06;3.70;;;3.40;;
11539;SDS011;5826;54.756;9.192;2023-04-15T04:36:31;3.75;;;3.38;;
11539;SDS011;5826;54.756;9.192;2023-04-15T04:38:57;3.00;;;2.70;;
11539;SDS011;5826;54.756;9.192;2023-04-15T04:41:22;3.37;;;3.00;;
11539;SDS011;5826;54.756;9.192;2023-04-15T04:43:48;3.20;;;2.90;;
11539;SDS011;5826;54.756;9.192;2023-04-15T04:46:13;3.13;;;2.83;;
11539;SDS011;5826;54.756;9.192;2023-04-15T04:48:39;3.23;;;2.93;;
11539;SDS011;5826;54.756;9.192;2023-04-15T04:51:05;2.83;;;2.60;;
11539;SDS011;5826;54.756;9.192;2023-04-15T04:53:31;2.87;;;2.60;;
11539;SDS011;5826;54.756;9.192;2023-04-15T04:55:57;2.10;;;1.90;;
11539;SDS011;5826;54.756;9.192;2023-04-15T04:58:22;2.33;;;2.13;;
11539;SDS011;5826;54.756;9.192;2023-04-15T05:00:48;3.13;;;2.30;;
11539;SDS011;5826;54.756;9.192;2023-04-15T05:03:13;3.43;;;2.93;;
11539;SDS011;5826;54.756;9.192;2023-04-15T05:05:39;2.60;;;2.40;;
11539;SDS011;5826;54.756;9.192;2023-04-15T05:08:05;2.57;;;2.37;;
11539;SDS011;5826;54.756;9.192;2023-04-15T05:10:31;2.63;;;2.43;;
11539;SDS011;5826;54.756;9.192;2023-04-15T05:12:57;2.30;;;2.10;;
11539;SDS011;5826;54.756;9.192;2023-04-15T05:15:22;2.33;;;2.13;;
11539;SDS011;5826;54.756;9.192;2023-04-15T05:17:48;2.83;;;2.40;;
11539;SDS011;5826;54.756;9.192;2023-04-15T05:20:14;3.03;;;2.60;;
11539;SDS011;5826;54.756;9.192;2023-04-15T05:22:39;2.53;;;2.30;;
11539;SDS011;5826;54.756;9.192;2023-04-15T05:25:05;2.50;;;2.30;;
11539;SDS011;5826;54.756;9.192;2023-04-15T05:27:31;1.93;;;1.80;;
11539;SDS011;5826;54.756;9.192;2023-04-15T05:29:56;2.70;;;2.50;;
11539;SDS011;5826;54.756;9.192;2023-04-15T05:32:22;2.30;;;2.10;;
11539;SDS011;5826;54.756;9.192;2023-04-15T05:34:47;2.70;;;2.10;;
11539;SDS011;5826;54.756;9.192;2023-04-15T05:37:13;2.40;;;2.10;;
11539;SDS011;5826;54.756;9.192;2023-04-15T05:39:38;2.13;;;1.93;;
11539;SDS011;5826;54.756;9.192;2023-04-15T05:42:04;2.20;;;2.00;;
11539;SDS011;5826;54.756;9.192;2023-04-15T05:44:30;2.07;;;1.97;;
11539;SDS011;5826;54.756;9.192;2023-04-15T05:46:55;3.07;;;2.67;;
11539;SDS011;5826;54.756;9.192;2023-04-15T05:49:21;3.27;;;2.97;;
11539;SDS011;5826;54.756;9.192;2023-04-15T05:51:47;2.60;;;2.40;;
11539;SDS011;5826;54.756;9.192;2023-04-15T05:54:13;2.10;;;1.90;;
11539;SDS011;5826;54.756;9.192;2023-04-15T05:56:38;2.20;;;2.00;;
11539;SDS011;5826;54.756;9.192;2023-04-15T05:59:03;2.60;;;2.40;;
11539;SDS011;5826;54.756;9.192;2023-04-15T06:01:29;3.37;;;3.07;;
11539;SDS011;5826;54.756;9.192;2023-04-15T06:03:55;2.30;;;2.10;;
11539;SDS011;5826;54.756;9.192;2023-04-15T06:06:20;2.80;;;2.60;;
11539;SDS011;5826;54.756;9.192;2023-04-15T06:08:46;3.17;;;2.70;;
11539;SDS011;5826;54.756;9.192;2023-04-15T06:11:11;3.20;;;2.90;;
11539;SDS011;5826;54.756;9.192;2023-04-15T06:13:37;4.53;;;3.17;;
11539;SDS011;5826;54.756;9.192;2023-04-15T06:16:02;4.03;;;2.80;;
11539;SDS011;5826;54.756;9.192;2023-04-15T06:18:28;4.33;;;3.80;;
11539;SDS011;5826;54.756;9.192;2023-04-15T06:20:54;3.60;;;2.80;;
11539;SDS011;5826;54.756;9.192;2023-04-15T06:23:19;4.60;;;3.20;;
11539;SDS011;5826;54.756;9.192;2023-04-15T06:25:45;5.00;;;3.83;;
11539;SDS011;5826;54.756;9.192;2023-04-15T06:28:10;4.07;;;3.37;;
11539;SDS011;5826;54.756;9.192;2023-04-15T06:30:36;5.40;;;4.20;;
11539;SDS011;5826;54.756;9.192;2023-04-15T06:33:03;6.07;;;4.30;;
11539;SDS011;5826;54.756;9.192;2023-04-15T06:35:30;7.53;;;5.40;;
11539;SDS011;5826;54.756;9.192;2023-04-15T06:37:55;4.50;;;3.60;;
11539;SDS011;5826;54.756;9.192;2023-04-15T06:40:21;6.17;;;4.17;;
11539;SDS011;5826;54.756;9.192;2023-04-15T06:42:46;4.23;;;3.60;;
11539;SDS011;5826;54.756;9.192;2023-04-15T06:45:12;5.88;;;4.53;;
11539;SDS011;5826;54.756;9.192;2023-04-15T06:47:38;7.60;;;5.43;;
11539;SDS011;5826;54.756;9.192;2023-04-15T06:50:03;6.57;;;4.93;;
11539;SDS011;5826;54.756;9.192;2023-04-15T06:52:30;6.37;;;4.63;;
11539;SDS011;5826;54.756;9.192;2023-04-15T06:54:55;6.43;;;5.00;;
11539;SDS011;5826;54.756;9.192;2023-04-15T06:57:21;8.67;;;6.07;;
11539;SDS011;5826;54.756;9.192;2023-04-15T06:59:46;8.50;;;6.33;;
11539;SDS011;5826;54.756;9.192;2023-04-15T07:02:12;9.27;;;6.30;;
11539;SDS011;5826;54.756;9.192;2023-04-15T07:04:38;8.77;;;6.50;;
11539;SDS011;5826;54.756;9.192;2023-04-15T07:07:04;10.85;;;7.45;;
11539;SDS011;5826;54.756;9.192;2023-04-15T07:09:29;10.00;;;7.50;;
11539;SDS011;5826;54.756;9.192;2023-04-15T07:11:56;9.18;;;7.30;;
11539;SDS011;5826;54.756;9.192;2023-04-15T07:14:21;11.87;;;8.27;;
11539;SDS011;5826;54.756;9.192;2023-04-15T07:16:47;11.03;;;7.90;;
11539;SDS011;5826;54.756;9.192;2023-04-15T07:19:12;13.70;;;10.77;;
11539;SDS011;5826;54.756;9.192;2023-04-15T07:21:38;9.80;;;7.30;;
11539;SDS011;5826;54.756;9.192;2023-04-15T07:24:04;10.60;;;7.93;;
11539;SDS011;5826;54.756;9.192;2023-04-15T07:26:29;12.10;;;8.30;;
11539;SDS011;5826;54.756;9.192;2023-04-15T07:28:55;9.63;;;7.40;;
11539;SDS011;5826;54.756;9.192;2023-04-15T07:31:20;11.93;;;8.97;;
11539;SDS011;5826;54.756;9.192;2023-04-15T07:33:46;11.97;;;9.33;;
11539;SDS011;5826;54.756;9.192;2023-04-15T07:36:12;10.20;;;8.17;;
11539;SDS011;5826;54.756;9.192;2023-04-15T07:38:38;10.23;;;7.90;;
11539;SDS011;5826;54.756;9.192;2023-04-15T07:41:04;9.77;;;7.75;;
11539;SDS011;5826;54.756;9.192;2023-04-15T07:43:29;12.30;;;9.17;;
11539;SDS011;5826;54.756;9.192;2023-04-15T07:45:55;12.70;;;9.13;;
11539;SDS011;5826;54.756;9.192;2023-04-15T07:48:20;10.30;;;7.90;;
11539;SDS011;5826;54.756;9.192;2023-04-15T07:50:46;12.13;;;9.10;;
11539;SDS011;5826;54.756;9.192;2023-04-15T07:53:12;10.77;;;7.77;;
11539;SDS011;5826;54.756;9.192;2023-04-15T07:55:38;13.73;;;10.67;;
11539;SDS011;5826;54.756;9.192;2023-04-15T07:58:03;12.73;;;8.73;;
11539;SDS011;5826;54.756;9.192;2023-04-15T08:00:29;12.33;;;9.07;;
11539;SDS011;5826;54.756;9.192;2023-04-15T08:02:55;12.57;;;9.57;;
11539;SDS011;5826;54.756;9.192;2023-04-15T08:05:21;16.05;;;11.27;;
11539;SDS011;5826;54.756;9.192;2023-04-15T08:07:47;16.70;;;12.07;;
11539;SDS011;5826;54.756;9.192;2023-04-15T08:10:13;15.35;;;12.43;;
11539;SDS011;5826;54.756;9.192;2023-04-15T08:12:39;18.77;;;12.70;;
11539;SDS011;5826;54.756;9.192;2023-04-15T08:15:04;14.85;;;11.27;;
11539;SDS011;5826;54.756;9.192;2023-04-15T08:17:32;15.80;;;11.95;;
11539;SDS011;5826;54.756;9.192;2023-04-15T08:19:58;22.55;;;16.85;;
11539;SDS011;5826;54.756;9.192;2023-04-15T08:22:23;24.17;;;18.05;;
11539;SDS011;5826;54.756;9.192;2023-04-15T08:24:49;15.90;;;12.77;;
11539;SDS011;5826;54.756;9.192;2023-04-15T08:27:15;20.30;;;14.30;;
11539;SDS011;5826;54.756;9.192;2023-04-15T08:29:41;20.20;;;16.38;;
11539;SDS011;5826;54.756;9.192;2023-04-15T08:32:06;14.65;;;12.18;;
11539;SDS011;5826;54.756;9.192;2023-04-15T08:34:33;16.83;;;13.13;;
11539;SDS011;5826;54.756;9.192;2023-04-15T08:36:59;14.18;;;11.43;;
11539;SDS011;5826;54.756;9.192;2023-04-15T08:39:24;13.25;;;10.88;;
11539;SDS011;5826;54.756;9.192;2023-04-15T08:41:52;14.48;;;11.60;;
11539;SDS011;5826;54.756;9.192;2023-04-15T08:44:24;15.02;;;11.00;;
11539;SDS011;5826;54.756;9.192;2023-04-15T08:46:53;15.63;;;12.13;;
11539;SDS011;5826;54.756;9.192;2023-04-15T08:49:20;13.73;;;11.30;;
11539;SDS011;5826;54.756;9.192;2023-04-15T08:51:50;18.00;;;14.60;;
11539;SDS011;5826;54.756;9.192;2023-04-15T08:54:16;19.23;;;13.85;;
11539;SDS011;5826;54.756;9.192;2023-04-15T08:56:42;16.15;;;12.52;;
11539;SDS011;5826;54.756;9.192;2023-04-15T08:59:08;16.38;;;12.88;;
11539;SDS011;5826;54.756;9.192;2023-04-15T09:01:35;13.98;;;11.65;;
11539;SDS011;5826;54.756;9.192;2023-04-15T09:04:02;13.82;;;11.75;;
11539;SDS011;5826;54.756;9.192;2023-04-15T09:06:30;14.25;;;11.80;;
11539;SDS011;5826;54.756;9.192;2023-04-15T09:08:56;15.40;;;12.20;;
11539;SDS011;5826;54.756;9.192;2023-04-15T09:11:21;13.18;;;10.75;;
11539;SDS011;5826;54.756;9.192;2023-04-15T09:13:47;13.20;;;10.48;;
11539;SDS011;5826;54.756;9.192;2023-04-15T09:16:13;16.15;;;13.00;;
11539;SDS011;5826;54.756;9.192;2023-04-15T09:18:39;15.18;;;12.48;;
11539;SDS011;5826;54.756;9.192;2023-04-15T09:21:05;15.50;;;12.20;;
11539;SDS011;5826;54.756;9.192;2023-04-15T09:23:38;15.15;;;12.57;;
11539;SDS011;5826;54.756;9.192;2023-04-15T09:26:05;16.08;;;13.20;;
11539;SDS011;5826;54.756;9.192;2023-04-15T09:28:32;19.35;;;15.55;;
11539;SDS011;5826;54.756;9.192;2023-04-15T09:31:00;20.00;;;14.80;;
11539;SDS011;5826;54.756;9.192;2023-04-15T09:33:27;14.75;;;12.52;;
11539;SDS011;5826;54.756;9.192;2023-04-15T09:35:57;13.82;;;12.00;;
11539;SDS011;5826;54.756;9.192;2023-04-15T09:38:24;15.73;;;12.93;;
11539;SDS011;5826;54.756;9.192;2023-04-15T09:40:50;13.18;;;10.80;;
11539;SDS011;5826;54.756;9.192;2023-04-15T09:43:15;12.32;;;10.68;;
11539;SDS011;5826;54.756;9.192;2023-04-15T09:45:50;13.07;;;11.18;;
11539;SDS011;5826;54.756;9.192;2023-04-15T09:48:18;13.45;;;10.50;;
11539;SDS011;5826;54.756;9.192;2023-04-15T09:50:49;11.95;;;10.60;;
11539;SDS011;5826;54.756;9.192;2023-04-15T09:53:16;14.85;;;11.65;;
11539;SDS011;5826;54.756;9.192;2023-04-15T09:55:48;11.73;;;10.50;;
11539;SDS011;5826;54.756;9.192;2023-04-15T09:58:18;11.73;;;10.05;;
11539;SDS011;5826;54.756;9.192;2023-04-15T10:00:51;13.65;;;10.45;;
11539;SDS011;5826;54.756;9.192;2023-04-15T10:03:19;12.57;;;10.77;;
11539;SDS011;5826;54.756;9.192;2023-04-15T10:05:55;10.88;;;9.65;;
11539;SDS011;5826;54.756;9.192;2023-04-15T10:08:22;11.07;;;9.93;;
11539;SDS011;5826;54.756;9.192;2023-04-15T10:10:51;14.05;;;11.20;;
11539;SDS011;5826;54.756;9.192;2023-04-15T10:13:19;12.23;;;10.50;;
11539;SDS011;5826;54.756;9.192;2023-04-15T10:15:49;14.45;;;11.80;;
11539;SDS011;5826;54.756;9.192;2023-04-15T10:18:18;11.52;;;10.20;;
11539;SDS011;5826;54.756;9.192;2023-04-15T10:20:46;10.57;;;9.32;;
11539;SDS011;5826;54.756;9.192;2023-04-15T10:23:12;11.82;;;10.20;;
11539;SDS011;5826;54.756;9.192;2023-04-15T10:25:39;13.02;;;9.93;;
11539;SDS011;5826;54.756;9.192;2023-04-15T10:28:06;11.48;;;10.13;;
11539;SDS011;5826;54.756;9.192;2023-04-15T10:30:32;11.88;;;10.35;;
11539;SDS011;5826;54.756;9.192;2023-04-15T10:32:59;11.60;;;9.48;;
11539;SDS011;5826;54.756;9.192;2023-04-15T10:35:27;11.63;;;10.13;;
11539;SDS011;5826;54.756;9.192;2023-04-15T10:37:54;8.43;;;7.63;;
11539;SDS011;5826;54.756;9.192;2023-04-15T10:40:27;8.65;;;7.75;;
11539;SDS011;5826;54.756;9.192;2023-04-15T10:42:57;11.45;;;10.25;;
11539;SDS011;5826;54.756;9.192;2023-04-15T10:45:32;13.18;;;11.75;;
11539;SDS011;5826;54.756;9.192;2023-04-15T10:48:00;15.60;;;12.98;;
11539;SDS011;5826;54.756;9.192;2023-04-15T10:50:30;12.82;;;11.55;;
11539;SDS011;5826;54.756;9.192;2023-04-15T10:52:56;16.10;;;14.48;;
11539;SDS011;5826;54.756;9.192;2023-04-15T10:55:24;12.63;;;11.35;;
11539;SDS011;5826;54.756;9.192;2023-04-15T10:57:51;12.20;;;11.00;;
11539;SDS011;5826;54.756;9.192;2023-04-15T11:00:18;11.27;;;10.15;;
11539;SDS011;5826;54.756;9.192;2023-04-15T11:05:17;13.45;;;12.15;;
11539;SDS011;5826;54.756;9.192;2023-04-15T11:12:57;12.18;;;10.98;;
11539;SDS011;5826;54.756;9.192;2023-04-15T11:15:36;12.20;;;11.07;;
11539;SDS011;5826;54.756;9.192;2023-04-15T11:18:10;12.23;;;10.93;;
11539;SDS011;5826;54.756;9.192;2023-04-15T11:20:47;13.82;;;12.35;;
11539;SDS011;5826;54.756;9.192;2023-04-15T11:23:17;11.50;;;10.25;;
11539;SDS011;5826;54.756;9.192;2023-04-15T11:25:44;14.85;;;13.25;;
11539;SDS011;5826;54.756;9.192;2023-04-15T11:28:10;14.48;;;13.00;;
11539;SDS011;5826;54.756;9.192;2023-04-15T11:30:38;10.68;;;9.57;;
11539;SDS011;5826;54.756;9.192;2023-04-15T11:33:05;11.50;;;10.32;;
11539;SDS011;5826;54.756;9.192;2023-04-15T11:35:32;11.48;;;10.38;;
11539;SDS011;5826;54.756;9.192;2023-04-15T11:38:01;10.32;;;9.25;;
11539;SDS011;5826;54.756;9.192;2023-04-15T11:40:32;10.60;;;9.60;;
11539;SDS011;5826;54.756;9.192;2023-04-15T11:45:47;12.18;;;11.02;;
11539;SDS011;5826;54.756;9.192;2023-04-15T11:48:15;10.65;;;9.65;;
11539;SDS011;5826;54.756;9.192;2023-04-15T11:50:41;10.13;;;9.13;;
11539;SDS011;5826;54.756;9.192;2023-04-15T11:53:08;11.45;;;10.35;;
11539;SDS011;5826;54.756;9.192;2023-04-15T11:55:42;9.77;;;8.85;;
11539;SDS011;5826;54.756;9.192;2023-04-15T11:58:17;10.75;;;9.75;;
11539;SDS011;5826;54.756;9.192;2023-04-15T12:00:45;10.30;;;9.27;;
11539;SDS011;5826;54.756;9.192;2023-04-15T12:13:52;13.70;;;12.32;;
11539;SDS011;5826;54.756;9.192;2023-04-15T12:16:20;12.32;;;11.02;;
11539;SDS011;5826;54.756;9.192;2023-04-15T12:18:50;14.02;;;12.65;;
11539;SDS011;5826;54.756;9.192;2023-04-15T12:21:20;11.27;;;10.20;;
11539;SDS011;5826;54.756;9.192;2023-04-15T12:23:48;10.70;;;9.60;;
11539;SDS011;5826;54.756;9.192;2023-04-15T12:26:14;11.35;;;10.18;;
11539;SDS011;5826;54.756;9.192;2023-04-15T12:28:40;12.02;;;10.77;;
11539;SDS011;5826;54.756;9.192;2023-04-15T12:31:06;10.65;;;9.60;;
11539;SDS011;5826;54.756;9.192;2023-04-15T12:33:33;11.00;;;9.15;;
11539;SDS011;5826;54.756;9.192;2023-04-15T12:35:59;9.75;;;8.85;;
11539;SDS011;5826;54.756;9.192;2023-04-15T12:38:25;10.25;;;9.18;;
11539;SDS011;5826;54.756;9.192;2023-04-15T12:40:50;9.25;;;8.45;;
11539;SDS011;5826;54.756;9.192;2023-04-15T12:43:16;10.38;;;9.35;;
11539;SDS011;5826;54.756;9.192;2023-04-15T12:45:41;9.02;;;8.13;;
11539;SDS011;5826;54.756;9.192;2023-04-15T12:48:07;9.50;;;8.52;;
11539;SDS011;5826;54.756;9.192;2023-04-15T12:50:33;9.95;;;8.98;;
11539;SDS011;5826;54.756;9.192;2023-04-15T12:52:59;10.50;;;9.52;;
11539;SDS011;5826;54.756;9.192;2023-04-15T12:55:25;9.70;;;8.68;;
11539;SDS011;5826;54.756;9.192;2023-04-15T12:57:51;10.98;;;9.88;;
11539;SDS011;5826;54.756;9.192;2023-04-15T13:00:16;10.57;;;9.63;;
11539;SDS011;5826;54.756;9.192;2023-04-15T13:02:42;10.43;;;9.50;;
11539;SDS011;5826;54.756;9.192;2023-04-15T13:05:08;12.52;;;11.30;;
11539;SDS011;5826;54.756;9.192;2023-04-15T13:07:34;10.60;;;9.50;;
11539;SDS011;5826;54.756;9.192;2023-04-15T13:09:59;9.70;;;8.80;;
11539;SDS011;5826;54.756;9.192;2023-04-15T13:12:25;12.15;;;10.95;;
11539;SDS011;5826;54.756;9.192;2023-04-15T13:14:51;11.07;;;9.98;;
11539;SDS011;5826;54.756;9.192;2023-04-15T13:17:17;9.90;;;9.00;;
11539;SDS011;5826;54.756;9.192;2023-04-15T13:19:44;9.30;;;8.35;;
11539;SDS011;5826;54.756;9.192;2023-04-15T13:22:10;9.43;;;8.63;;
11539;SDS011;5826;54.756;9.192;2023-04-15T13:24:36;8.05;;;7.35;;
11539;SDS011;5826;54.756;9.192;2023-04-15T13:27:03;8.85;;;7.65;;
11539;SDS011;5826;54.756;9.192;2023-04-15T13:29:28;9.32;;;8.43;;
11539;SDS011;5826;54.756;9.192;2023-04-15T13:31:54;8.30;;;7.60;;
11539;SDS011;5826;54.756;9.192;2023-04-15T13:34:20;7.25;;;6.55;;
11539;SDS011;5826;54.756;9.192;2023-04-15T13:36:46;7.20;;;6.50;;
11539;SDS011;5826;54.756;9.192;2023-04-15T13:39:11;7.15;;;6.47;;
11539;SDS011;5826;54.756;9.192;2023-04-15T13:41:37;6.78;;;6.13;;
11539;SDS011;5826;54.756;9.192;2023-04-15T13:44:03;7.20;;;6.50;;
11539;SDS011;5826;54.756;9.192;2023-04-15T13:46:30;6.55;;;5.95;;
11539;SDS011;5826;54.756;9.192;2023-04-15T13:48:55;8.05;;;7.35;;
11539;SDS011;5826;54.756;9.192;2023-04-15T13:51:21;9.80;;;8.80;;
11539;SDS011;5826;54.756;9.192;2023-04-15T13:53:46;8.43;;;7.53;;
11539;SDS011;5826;54.756;9.192;2023-04-15T13:56:12;7.13;;;6.53;;
11539;SDS011;5826;54.756;9.192;2023-04-15T13:58:37;7.95;;;7.15;;
11539;SDS011;5826;54.756;9.192;2023-04-15T14:01:04;7.50;;;6.80;;
11539;SDS011;5826;54.756;9.192;2023-04-15T14:03:30;7.85;;;7.10;;
11539;SDS011;5826;54.756;9.192;2023-04-15T14:05:55;7.32;;;6.63;;
11539;SDS011;5826;54.756;9.192;2023-04-15T14:08:22;6.75;;;6.15;;
11539;SDS011;5826;54.756;9.192;2023-04-15T14:10:48;8.75;;;7.85;;
11539;SDS011;5826;54.756;9.192;2023-04-15T14:13:14;8.05;;;7.25;;
11539;SDS011;5826;54.756;9.192;2023-04-15T14:15:40;8.32;;;7.55;;
11539;SDS011;5826;54.756;9.192;2023-04-15T14:18:06;7.63;;;6.93;;
11539;SDS011;5826;54.756;9.192;2023-04-15T14:20:32;9.65;;;8.73;;
11539;SDS011;5826;54.756;9.192;2023-04-15T14:22:57;8.32;;;7.53;;
11539;SDS011;5826;54.756;9.192;2023-04-15T14:25:23;7.45;;;6.75;;
11539;SDS011;5826;54.756;9.192;2023-04-15T14:27:48;7.47;;;6.78;;
11539;SDS011;5826;54.756;9.192;2023-04-15T14:30:14;8.18;;;7.43;;
11539;SDS011;5826;54.756;9.192;2023-04-15T14:32:39;7.88;;;7.10;;
11539;SDS011;5826;54.756;9.192;2023-04-15T14:35:05;7.65;;;6.85;;
11539;SDS011;5826;54.756;9.192;2023-04-15T14:37:31;8.77;;;7.88;;
11539;SDS011;5826;54.756;9.192;2023-04-15T14:39:57;10.85;;;9.68;;
11539;SDS011;5826;54.756;9.192;2023-04-15T14:42:22;8.77;;;7.90;;
11539;SDS011;5826;54.756;9.192;2023-04-15T14:44:48;10.32;;;9.32;;
11539;SDS011;5826;54.756;9.192;2023-04-15T14:47:14;10.00;;;9.05;;
11539;SDS011;5826;54.756;9.192;2023-04-15T14:49:40;8.98;;;8.10;;
11539;SDS011;5826;54.756;9.192;2023-04-15T14:52:05;9.52;;;8.55;;
11539;SDS011;5826;54.756;9.192;2023-04-15T14:54:31;10.38;;;9.23;;
11539;SDS011;5826;54.756;9.192;2023-04-15T14:56:56;9.05;;;8.15;;
11539;SDS011;5826;54.756;9.192;2023-04-15T14:59:22;8.55;;;7.75;;
11539;SDS011;5826;54.756;9.192;2023-04-15T15:01:47;10.25;;;9.25;;
11539;SDS011;5826;54.756;9.192;2023-04-15T15:04:13;8.60;;;7.70;;
11539;SDS011;5826;54.756;9.192;2023-04-15T15:06:38;9.07;;;8.18;;
11539;SDS011;5826;54.756;9.192;2023-04-15T15:09:04;8.52;;;7.75;;